createdAt,value
2022-12-22T00:01:34.009Z,5.90
2022-12-22T00:04:19.816Z,6.00
2022-12-22T00:07:05.539Z,5.90
2022-12-22T00:09:51.262Z,5.90
2022-12-22T00:12:37.714Z,5.90
2022-12-22T00:15:23.886Z,5.90
2022-12-22T00:18:09.424Z,6.00
2022-12-22T00:20:55.168Z,6.20
2022-12-22T00:23:40.685Z,6.30
2022-12-22T00:26:26.768Z,6.40
2022-12-22T00:29:12.333Z,6.40
2022-12-22T00:31:58.900Z,6.60
2022-12-22T00:34:48.348Z,6.70
2022-12-22T00:37:33.969Z,6.70
2022-12-22T00:40:20.053Z,6.90
2022-12-22T00:43:05.641Z,6.90
2022-12-22T00:45:59.841Z,7.00
2022-12-22T00:48:45.398Z,7.00
2022-12-22T00:51:31.394Z,7.10
2022-12-22T00:54:17.055Z,7.10
2022-12-22T00:57:02.604Z,7.20
2022-12-22T00:59:48.199Z,7.20
2022-12-22T01:02:33.929Z,7.20
2022-12-22T01:05:19.442Z,7.40
2022-12-22T01:08:05.153Z,7.50
2022-12-22T01:10:50.750Z,7.60
2022-12-22T01:13:36.383Z,7.70
2022-12-22T01:16:21.614Z,7.80
2022-12-22T01:19:07.262Z,7.90
2022-12-22T01:21:52.772Z,8.00
2022-12-22T01:24:38.248Z,8.00
2022-12-22T01:27:23.995Z,8.10
2022-12-22T01:30:09.559Z,8.20
2022-12-22T01:32:55.166Z,8.20
2022-12-22T01:35:42.743Z,8.20
2022-12-22T01:38:28.282Z,8.20
2022-12-22T01:41:15.344Z,8.20
2022-12-22T01:44:01.251Z,8.20
2022-12-22T01:46:48.272Z,8.20
2022-12-22T01:49:36.252Z,8.20
2022-12-22T01:52:21.786Z,8.20
2022-12-22T01:55:07.730Z,8.30
2022-12-22T01:57:53.741Z,8.40
2022-12-22T02:00:39.409Z,8.40
2022-12-22T02:03:36.480Z,8.50
2022-12-22T02:06:28.576Z,8.60
2022-12-22T02:09:34.450Z,8.70
2022-12-22T02:12:49.117Z,8.70
2022-12-22T02:15:40.482Z,8.70
2022-12-22T02:18:28.339Z,8.70
2022-12-22T02:21:19.668Z,8.80
2022-12-22T02:24:18.266Z,8.80
2022-12-22T02:27:04.796Z,8.90
2022-12-22T02:29:55.132Z,8.90
2022-12-22T02:32:46.548Z,8.90
2022-12-22T02:35:35.158Z,8.90
2022-12-22T02:38:39.553Z,8.80
2022-12-22T02:41:41.777Z,8.80
2022-12-22T02:44:35.719Z,8.80
2022-12-22T02:47:21.351Z,8.80
2022-12-22T02:50:27.249Z,8.70
2022-12-22T02:53:13.539Z,8.60
2022-12-22T02:55:59.112Z,8.50
2022-12-22T02:58:47.670Z,8.50
2022-12-22T03:01:33.395Z,8.50
2022-12-22T03:04:21.170Z,8.50
2022-12-22T03:07:06.814Z,8.40
2022-12-22T03:09:52.252Z,8.40
2022-12-22T03:12:37.886Z,8.50
2022-12-22T03:15:25.738Z,8.60
2022-12-22T03:18:14.147Z,8.60
2022-12-22T03:20:59.837Z,8.60
2022-12-22T03:23:47.916Z,8.50
2022-12-22T03:26:14.917Z,8.50
2022-12-22T03:28:41.742Z,8.50
2022-12-22T03:31:08.618Z,8.40
2022-12-22T03:33:35.509Z,8.30
2022-12-22T03:36:02.811Z,8.20
2022-12-22T03:38:29.788Z,8.20
2022-12-22T03:40:56.642Z,8.30
2022-12-22T03:44:00.661Z,8.50
2022-12-22T03:46:33.136Z,8.60
2022-12-22T03:49:13.026Z,8.80
2022-12-22T03:51:44.430Z,9.00
2022-12-22T03:54:12.758Z,9.10
2022-12-22T03:56:39.949Z,9.20
2022-12-22T03:59:06.939Z,9.40
2022-12-22T04:01:36.999Z,9.50
2022-12-22T04:04:04.061Z,9.60
2022-12-22T04:06:31.037Z,9.60
2022-12-22T04:08:58.115Z,9.70
2022-12-22T04:11:43.955Z,9.70
2022-12-22T04:14:10.807Z,9.80
2022-12-22T04:16:37.672Z,9.80
2022-12-22T04:19:04.622Z,9.80
2022-12-22T04:21:31.534Z,9.90
2022-12-22T04:24:01.043Z,9.90
2022-12-22T04:26:28.623Z,9.90
2022-12-22T04:28:55.711Z,9.90
2022-12-22T04:31:22.827Z,9.90
2022-12-22T04:33:52.039Z,9.90
2022-12-22T04:36:18.934Z,10.00
2022-12-22T04:38:46.103Z,10.00
2022-12-22T04:41:15.443Z,10.00
2022-12-22T04:43:44.601Z,10.00
2022-12-22T04:46:11.442Z,10.00
2022-12-22T04:48:38.462Z,9.90
2022-12-22T04:51:11.985Z,10.00
2022-12-22T04:53:41.474Z,10.00
2022-12-22T04:56:10.723Z,9.90
2022-12-22T04:58:37.522Z,9.90
2022-12-22T05:01:11.932Z,9.90
2022-12-22T05:03:38.948Z,9.90
2022-12-22T05:06:05.852Z,9.90
2022-12-22T05:08:37.559Z,10.00
2022-12-22T05:11:04.637Z,10.00
2022-12-22T05:13:32.182Z,10.10
2022-12-22T05:16:06.970Z,10.10
2022-12-22T05:18:34.648Z,10.10
2022-12-22T05:21:06.577Z,10.10
2022-12-22T05:23:33.772Z,10.10
2022-12-22T05:26:01.177Z,10.10
2022-12-22T05:28:28.167Z,10.10
2022-12-22T05:30:55.501Z,10.20
2022-12-22T05:33:22.328Z,10.20
2022-12-22T05:35:49.183Z,10.20
2022-12-22T05:38:16.056Z,10.10
2022-12-22T05:40:42.864Z,10.10
2022-12-22T05:43:12.301Z,10.10
2022-12-22T05:45:41.681Z,10.10
2022-12-22T05:48:11.212Z,10.00
2022-12-22T05:50:40.659Z,10.00
2022-12-22T05:53:07.485Z,10.00
2022-12-22T05:55:34.717Z,10.00
2022-12-22T05:58:04.397Z,10.00
2022-12-22T06:00:34.308Z,9.90
2022-12-22T06:03:01.346Z,9.70
2022-12-22T06:05:28.334Z,9.70
2022-12-22T06:07:55.477Z,9.50
2022-12-22T06:10:22.419Z,9.50
2022-12-22T06:12:51.744Z,9.60
2022-12-22T06:15:18.582Z,9.60
2022-12-22T06:17:45.624Z,9.50
2022-12-22T06:20:13.968Z,9.50
2022-12-22T06:22:40.819Z,9.50
2022-12-22T06:25:09.962Z,9.40
2022-12-22T06:27:40.559Z,9.30
2022-12-22T06:30:10.035Z,9.20
2022-12-22T06:32:37.256Z,9.20
2022-12-22T06:35:07.303Z,9.20
2022-12-22T06:37:34.144Z,9.30
2022-12-22T06:40:01.105Z,9.40
2022-12-22T06:42:46.431Z,9.50
2022-12-22T06:45:13.420Z,9.50
2022-12-22T06:47:42.733Z,9.40
2022-12-22T06:50:12.017Z,9.40
2022-12-22T06:52:39.732Z,9.50
2022-12-22T06:55:09.122Z,9.50
2022-12-22T06:57:36.024Z,9.60
2022-12-22T07:00:03.907Z,9.60
2022-12-22T07:02:32.067Z,9.70
2022-12-22T07:04:59.199Z,9.70
2022-12-22T07:07:26.122Z,9.60
2022-12-22T07:09:52.903Z,9.40
2022-12-22T07:12:19.812Z,9.20
2022-12-22T07:14:46.597Z,9.20
2022-12-22T07:17:13.526Z,9.30
2022-12-22T07:19:42.917Z,9.40
2022-12-22T07:22:09.708Z,9.50
2022-12-22T07:24:41.913Z,9.70
2022-12-22T07:27:08.798Z,9.80
2022-12-22T07:29:36.628Z,9.90
2022-12-22T07:32:03.730Z,10.00
2022-12-22T07:34:30.730Z,10.10
2022-12-22T07:36:57.661Z,10.10
2022-12-22T07:39:24.526Z,10.10
2022-12-22T07:42:12.453Z,10.10
2022-12-22T07:44:39.349Z,10.10
2022-12-22T07:47:07.393Z,10.20
2022-12-22T07:49:53.048Z,10.10
2022-12-22T07:52:22.300Z,10.10
2022-12-22T07:54:49.285Z,10.10
2022-12-22T07:57:16.125Z,10.20
2022-12-22T07:59:43.088Z,10.20
2022-12-22T08:02:10.840Z,10.30
2022-12-22T08:04:37.888Z,10.40
2022-12-22T08:07:04.848Z,10.50
2022-12-22T08:09:31.720Z,10.60
2022-12-22T18:17:18.980Z,8.60
2022-12-22T18:19:46.151Z,8.50
2022-12-22T18:22:24.316Z,8.50
2022-12-22T18:24:53.272Z,8.50
2022-12-22T18:27:20.780Z,8.50
2022-12-22T18:29:50.392Z,8.50
2022-12-22T18:32:27.026Z,8.50
2022-12-22T18:34:57.348Z,8.40
2022-12-22T18:37:24.314Z,8.40
2022-12-22T18:39:51.318Z,8.40
2022-12-22T18:42:25.184Z,8.50
2022-12-22T18:44:54.660Z,8.40
2022-12-22T18:47:26.271Z,8.40
2022-12-22T18:49:53.365Z,8.30
2022-12-22T18:52:23.308Z,8.30
2022-12-22T18:54:52.439Z,8.40
2022-12-22T18:57:24.235Z,8.40
2022-12-22T18:59:51.653Z,8.50
2022-12-22T19:02:24.500Z,8.60
2022-12-22T19:04:51.776Z,8.60
2022-12-22T19:07:22.248Z,8.60
2022-12-22T19:09:49.892Z,8.60
2022-12-22T19:12:19.740Z,8.60
2022-12-22T19:14:55.241Z,8.60
2022-12-22T19:17:26.193Z,8.60
2022-12-22T19:19:55.700Z,8.60
2022-12-22T19:22:27.827Z,8.60
2022-12-22T19:24:59.114Z,8.70
2022-12-22T19:27:27.779Z,8.70
2022-12-22T19:30:03.380Z,8.70
2022-12-22T19:32:38.316Z,8.80
2022-12-22T19:35:13.036Z,8.80
2022-12-22T19:37:42.280Z,8.80
2022-12-22T19:40:09.801Z,8.80
2022-12-22T19:42:42.349Z,8.90
2022-12-22T19:45:38.735Z,8.90
2022-12-22T19:48:25.877Z,9.00
2022-12-22T19:50:55.597Z,9.00
2022-12-22T19:53:23.189Z,9.10
2022-12-22T19:55:55.344Z,9.20
2022-12-22T19:58:29.450Z,9.30
2022-12-22T20:00:59.182Z,9.30
2022-12-22T20:03:26.508Z,9.40
2022-12-22T20:05:53.617Z,9.40
2022-12-22T20:08:20.506Z,9.50
2022-12-22T20:10:56.299Z,9.50
2022-12-22T20:13:30.035Z,9.60
2022-12-22T20:16:00.001Z,9.60
2022-12-22T20:18:30.479Z,9.60
2022-12-22T20:21:01.323Z,9.70
2022-12-22T20:23:31.073Z,9.60
2022-12-22T20:26:02.745Z,9.60
2022-12-22T20:28:35.538Z,9.60
2022-12-22T20:31:08.726Z,9.60
2022-12-22T20:33:36.034Z,9.70
2022-12-22T20:36:03.581Z,9.70
2022-12-22T20:38:41.741Z,9.70
2022-12-22T20:41:11.166Z,9.80
2022-12-22T20:43:41.317Z,9.70
2022-12-22T20:46:21.839Z,9.70
2022-12-22T20:49:01.700Z,9.70
2022-12-22T20:51:34.043Z,9.70
2022-12-22T20:54:03.777Z,9.70
2022-12-22T20:56:40.352Z,9.70
2022-12-22T20:59:15.203Z,9.70
2022-12-22T21:01:44.547Z,9.70
2022-12-22T21:04:11.603Z,9.70
2022-12-22T21:06:49.375Z,9.70
2022-12-22T21:09:16.531Z,9.70
2022-12-22T21:11:43.708Z,9.60
2022-12-22T21:14:11.875Z,9.60
2022-12-22T21:16:39.682Z,9.60
2022-12-22T21:19:15.151Z,9.60
2022-12-22T21:21:44.342Z,9.50
2022-12-22T21:24:13.464Z,9.50
2022-12-22T21:26:45.372Z,9.50
2022-12-22T21:29:25.718Z,9.50
2022-12-22T21:31:55.612Z,9.50
2022-12-22T21:34:27.525Z,9.50
2022-12-22T21:37:01.589Z,9.50
2022-12-22T21:39:39.346Z,9.50
2022-12-22T21:42:07.746Z,9.50
2022-12-22T21:44:38.140Z,9.50
2022-12-22T21:47:05.147Z,9.50
2022-12-22T21:49:33.870Z,9.40
2022-12-22T21:52:01.093Z,9.40
2022-12-22T21:54:28.260Z,9.40
2022-12-22T21:56:58.075Z,9.40
2022-12-22T21:59:29.594Z,9.40
2022-12-22T22:01:57.140Z,9.50
2022-12-22T22:04:26.923Z,9.50
2022-12-22T22:06:53.836Z,9.40
2022-12-22T22:09:20.880Z,9.50
2022-12-22T22:12:06.336Z,9.50
2022-12-22T22:14:33.337Z,9.50
2022-12-22T22:17:00.470Z,9.50
2022-12-22T22:19:27.361Z,9.50
2022-12-22T22:21:56.664Z,9.50
2022-12-22T22:24:23.611Z,9.50
2022-12-22T22:26:51.892Z,9.50
2022-12-22T22:29:21.305Z,9.40
2022-12-22T22:31:48.372Z,9.40
2022-12-22T22:34:19.899Z,9.40
2022-12-22T22:36:48.997Z,9.40
2022-12-22T22:39:16.026Z,9.40
2022-12-22T22:41:43.881Z,9.50
2022-12-22T22:44:11.907Z,9.50
2022-12-22T22:46:41.656Z,9.50
2022-12-22T22:49:09.043Z,9.50
2022-12-22T22:51:36.089Z,9.50
2022-12-22T22:54:03.064Z,9.50
2022-12-22T22:56:32.622Z,9.60
2022-12-22T22:59:00.178Z,9.60
2022-12-22T23:01:31.853Z,9.60
2022-12-22T23:04:01.150Z,9.50
2022-12-22T23:06:30.453Z,9.50
2022-12-22T23:08:57.576Z,9.60
2022-12-22T23:11:24.696Z,9.60
2022-12-22T23:13:54.243Z,9.60
2022-12-22T23:16:21.984Z,9.60
2022-12-22T23:18:54.302Z,9.60
2022-12-22T23:21:23.685Z,9.70
2022-12-22T23:23:57.975Z,9.70
2022-12-22T23:26:25.760Z,9.80
2022-12-22T23:28:57.672Z,9.80
2022-12-22T23:31:37.321Z,9.80
2022-12-22T23:34:04.574Z,9.90
2022-12-22T23:36:32.501Z,9.80
2022-12-22T23:39:01.642Z,9.90
2022-12-22T23:41:28.900Z,9.90
2022-12-22T23:43:56.267Z,9.90
2022-12-22T23:46:26.029Z,9.90
2022-12-22T23:48:55.593Z,9.90
2022-12-22T23:51:24.395Z,9.90
2022-12-22T23:53:51.368Z,10.00
2022-12-22T23:56:18.890Z,10.00
2022-12-22T23:58:50.938Z,9.90
